Time;durP1;ratioP1;P1;durP2;ratioP2;P2;SDS_P1;SDS_P2;PMS_P1;PMS_P2;Temp;Humidity;BMP_temperature;BMP_pressure;BME280_temperature;BME280_humidity;BME280_pressure;Samples;Min_cycle;Max_cycle;Signal;HPM_P1;HPM_P2
2023/03/20 06:45:18;;;;;;;59.97;45.00;;;;;19.90;100797.00;;;;2028458;28;20233;-68
2023/03/20 06:46:19;;;;;;;64.10;47.27;;;;;19.90;100804.00;;;;2028254;29;20292;-68
2023/03/20 06:47:19;;;;;;;63.07;45.97;;;;;19.90;100806.00;;;;2020378;29;20230;-67
2023/03/20 06:48:20;;;;;;;54.20;41.20;;;;;19.90;100802.00;;;;2039089;28;20221;-68
2023/03/20 06:49:21;;;;;;;55.90;42.92;;;;;19.90;100807.00;;;;2029561;29;20265;-68
2023/03/20 06:50:21;;;;;;;57.23;43.10;;;;;19.90;100807.00;;;;2029532;29;20356;-68
2023/03/20 06:51:21;;;;;;;55.60;42.90;;;;;19.90;100815.00;;;;2025474;29;20308;-68
2023/03/20 06:52:22;;;;;;;58.23;43.60;;;;;19.90;100810.00;;;;2008088;29;20225;-69
2023/03/20 06:53:26;;;;;;;53.30;42.60;;;;;19.90;100816.00;;;;2034859;28;20297;-69
2023/03/20 06:54:26;;;;;;;57.60;44.55;;;;;19.90;100820.00;;;;2039023;28;20299;-68
2023/03/20 06:55:26;;;;;;;53.93;41.97;;;;;19.90;100828.00;;;;2026444;28;21483;-68
2023/03/20 06:56:26;;;;;;;54.80;41.27;;;;;19.90;100814.00;;;;2044515;28;20779;-68
2023/03/20 06:57:27;;;;;;;57.20;44.63;;;;;20.00;100832.00;;;;2040766;28;20785;-69
2023/03/20 06:58:27;;;;;;;51.13;40.83;;;;;20.00;100816.00;;;;2038158;28;20714;-68
2023/03/20 06:59:27;;;;;;;57.07;43.73;;;;;20.00;100822.00;;;;2037752;28;20982;-68
2023/03/20 07:00:28;;;;;;;53.57;41.07;;;;;20.00;100822.00;;;;2037419;28;20592;-69
2023/03/20 07:01:28;;;;;;;54.33;42.00;;;;;20.00;100828.00;;;;2038303;28;20684;-69
2023/03/20 07:02:29;;;;;;;57.80;42.50;;;;;20.00;100823.00;;;;2008004;28;20214;-69
2023/03/20 07:03:29;;;;;;;66.13;47.87;;;;;20.00;100821.00;;;;2024103;29;21015;-69
2023/03/20 07:04:30;;;;;;;74.20;52.00;;;;;20.00;100821.00;;;;2029675;29;20594;-68
2023/03/20 07:05:31;;;;;;;76.87;52.90;;;;;20.00;100821.00;;;;2021754;29;20595;-68
2023/03/20 07:06:32;;;;;;;87.50;63.67;;;;;20.00;100819.00;;;;2029785;29;20829;-68
2023/03/20 07:07:33;;;;;;;90.73;66.07;;;;;20.00;100823.00;;;;2030749;29;20217;-69
2023/03/20 07:08:33;;;;;;;79.87;59.33;;;;;20.00;100826.00;;;;2022957;29;20473;-69
2023/03/20 07:09:33;;;;;;;92.50;69.63;;;;;20.00;100821.00;;;;2027041;29;20418;-68
2023/03/20 07:10:34;;;;;;;106.50;74.07;;;;;20.00;100819.00;;;;2046362;28;20223;-68
2023/03/20 07:11:34;;;;;;;105.67;76.00;;;;;20.10;100833.00;;;;2045628;28;20228;-68
2023/03/20 07:12:35;;;;;;;80.53;60.73;;;;;20.10;100830.00;;;;2035257;28;20223;-67
2023/03/20 07:13:35;;;;;;;109.50;78.70;;;;;20.10;100831.00;;;;2048640;28;20225;-68
2023/03/20 07:14:35;;;;;;;97.20;72.47;;;;;20.10;100835.00;;;;2046758;28;20233;-68
2023/03/20 07:15:36;;;;;;;103.23;75.87;;;;;20.10;100825.00;;;;2046771;28;20278;-68
2023/03/20 07:16:36;;;;;;;101.53;71.37;;;;;20.10;100834.00;;;;2045887;28;20219;-68
2023/03/20 07:17:37;;;;;;;97.93;72.43;;;;;20.10;100822.00;;;;2042696;28;20320;-67
2023/03/20 07:18:37;;;;;;;92.23;68.63;;;;;20.10;100827.00;;;;2042564;28;20251;-68
2023/03/20 07:19:37;;;;;;;77.27;56.17;;;;;20.10;100833.00;;;;2037372;29;20224;-68
2023/03/20 07:20:38;;;;;;;92.40;69.70;;;;;20.10;100830.00;;;;2038569;28;20226;-68
2023/03/20 07:21:38;;;;;;;98.87;72.53;;;;;20.10;100815.00;;;;2038225;28;20212;-67
2023/03/20 07:22:38;;;;;;;103.23;77.03;;;;;20.20;100824.00;;;;2036401;28;20247;-67
2023/03/20 07:23:39;;;;;;;96.30;70.17;;;;;20.20;100818.00;;;;2036906;29;20212;-66
2023/03/20 07:24:39;;;;;;;95.03;73.83;;;;;20.20;100824.00;;;;2037029;29;20261;-66
2023/03/20 07:25:39;;;;;;;88.77;66.60;;;;;20.20;100820.00;;;;2037587;28;20228;-66
2023/03/20 07:26:40;;;;;;;87.33;63.70;;;;;20.20;100822.00;;;;2038305;28;20217;-66
2023/03/20 07:27:40;;;;;;;90.83;66.97;;;;;20.20;100820.00;;;;2032218;28;20230;-66
2023/03/20 07:28:40;;;;;;;93.33;68.23;;;;;20.20;100819.00;;;;2037182;29;20605;-66
2023/03/20 07:29:41;;;;;;;106.10;76.57;;;;;20.20;100816.00;;;;2038546;29;20220;-66
2023/03/20 07:30:41;;;;;;;93.23;67.60;;;;;20.20;100820.00;;;;2037071;28;20216;-66
2023/03/20 07:31:41;;;;;;;93.37;67.87;;;;;20.30;100824.00;;;;2035823;28;20291;-66
2023/03/20 07:32:42;;;;;;;82.63;66.87;;;;;20.30;100831.00;;;;2043528;28;20215;-66
2023/03/20 07:33:42;;;;;;;90.93;68.97;;;;;20.20;100833.00;;;;2035401;28;20209;-66
2023/03/20 07:34:43;;;;;;;89.17;63.20;;;;;20.30;100829.00;;;;2044645;28;20691;-66
2023/03/20 07:35:43;;;;;;;99.90;73.53;;;;;20.30;100836.00;;;;2039685;28;20852;-67
2023/03/20 07:36:43;;;;;;;91.03;66.07;;;;;20.30;100834.00;;;;2038410;29;20244;-66
2023/03/20 07:37:44;;;;;;;86.50;64.40;;;;;20.30;100843.00;;;;2027674;28;20221;-66
2023/03/20 07:38:44;;;;;;;96.03;71.07;;;;;20.30;100846.00;;;;2036816;28;20235;-66
2023/03/20 07:39:45;;;;;;;83.20;61.30;;;;;20.30;100836.00;;;;2041729;28;20639;-66
2023/03/20 07:40:45;;;;;;;85.93;64.27;;;;;20.30;100838.00;;;;2036542;28;20217;-66
2023/03/20 07:41:46;;;;;;;87.93;67.27;;;;;20.30;100843.00;;;;2037947;28;20208;-66
2023/03/20 07:42:46;;;;;;;100.40;73.70;;;;;20.30;100851.00;;;;2035577;28;20579;-67
2023/03/20 07:43:46;;;;;;;90.43;67.90;;;;;20.30;100838.00;;;;2039464;28;20236;-66
2023/03/20 07:44:47;;;;;;;107.13;79.63;;;;;20.30;100838.00;;;;2028908;29;20248;-66
2023/03/20 07:45:47;;;;;;;98.93;72.90;;;;;20.30;100836.00;;;;2037006;29;20242;-66
2023/03/20 07:46:47;;;;;;;96.73;72.67;;;;;20.30;100844.00;;;;2034067;28;20283;-66
2023/03/20 07:47:48;;;;;;;102.93;79.60;;;;;20.30;100849.00;;;;2044864;28;20209;-66
2023/03/20 07:48:48;;;;;;;111.40;83.80;;;;;20.30;100839.00;;;;2039451;28;20219;-66
2023/03/20 07:49:48;;;;;;;110.87;85.60;;;;;20.30;100848.00;;;;2037337;28;20217;-66
2023/03/20 07:50:49;;;;;;;104.00;77.13;;;;;20.40;100854.00;;;;2038838;28;20225;-66
2023/03/20 07:51:49;;;;;;;108.57;80.10;;;;;20.40;100852.00;;;;2036712;28;20240;-66
2023/03/20 07:52:52;;;;;;;96.33;70.93;;;;;20.40;100850.00;;;;2012923;28;20259;-66
2023/03/20 07:53:53;;;;;;;100.13;73.65;;;;;20.40;100851.00;;;;2030483;29;20206;-66
2023/03/20 07:54:53;;;;;;;93.87;73.33;;;;;20.40;100854.00;;;;2022396;29;20240;-66
2023/03/20 07:55:54;;;;;;;106.27;80.17;;;;;20.40;100851.00;;;;2031580;29;20249;-66
2023/03/20 07:56:54;;;;;;;105.90;79.93;;;;;20.40;100850.00;;;;2030348;29;20214;-66
2023/03/20 07:57:55;;;;;;;112.07;79.13;;;;;20.40;100844.00;;;;2030390;29;20249;-66
2023/03/20 07:58:55;;;;;;;98.83;72.20;;;;;20.40;100858.00;;;;2030261;29;20230;-66
2023/03/20 07:59:55;;;;;;;115.87;83.40;;;;;20.40;100853.00;;;;2030300;29;20214;-66
2023/03/20 08:00:57;;;;;;;91.50;71.10;;;;;20.40;100860.00;;;;2031599;29;20225;-66
2023/03/20 08:01:57;;;;;;;96.72;73.05;;;;;20.40;100857.00;;;;2031790;29;20210;-66
2023/03/20 08:02:58;;;;;;;102.67;78.43;;;;;20.40;100854.00;;;;2025825;29;20219;-66
2023/03/20 08:03:58;;;;;;;93.93;74.33;;;;;20.40;100859.00;;;;2030266;29;20218;-66
2023/03/20 08:04:58;;;;;;;101.17;75.07;;;;;20.40;100866.00;;;;2031000;29;20226;-65
2023/03/20 08:05:59;;;;;;;94.97;71.00;;;;;20.40;100864.00;;;;2015798;29;20244;-66
2023/03/20 08:06:59;;;;;;;102.73;74.90;;;;;20.40;100853.00;;;;2022890;29;20221;-66
2023/03/20 08:07:59;;;;;;;89.33;69.50;;;;;20.40;100818.00;;;;2008922;28;20561;-66
2023/03/20 08:09:00;;;;;;;96.37;75.53;;;;;20.40;100847.00;;;;2031316;29;20728;-66
2023/03/20 08:10:02;;;;;;;102.80;77.73;;;;;20.40;100864.00;;;;2030546;29;20256;-67
2023/03/20 08:11:02;;;;;;;92.22;73.85;;;;;20.40;100858.00;;;;2032172;29;20936;-66
2023/03/20 08:12:03;;;;;;;91.60;69.03;;;;;20.40;100860.00;;;;2030483;29;20218;-66
2023/03/20 08:13:04;;;;;;;87.68;68.45;;;;;20.50;100857.00;;;;2028936;29;20677;-66
2023/03/20 08:14:04;;;;;;;93.60;71.50;;;;;20.50;100864.00;;;;2024435;29;20249;-66
2023/03/20 08:15:05;;;;;;;94.63;70.30;;;;;20.50;100860.00;;;;2038273;29;20225;-66
2023/03/20 08:16:06;;;;;;;95.95;72.13;;;;;20.50;100864.00;;;;2026974;29;20208;-66
2023/03/20 08:17:06;;;;;;;94.67;70.53;;;;;20.50;100856.00;;;;2031192;29;20349;-66
2023/03/20 08:18:06;;;;;;;99.40;72.97;;;;;20.50;100863.00;;;;2025740;29;20258;-66
2023/03/20 08:19:07;;;;;;;90.83;70.93;;;;;20.50;100863.00;;;;2038778;29;20590;-66
2023/03/20 08:20:08;;;;;;;84.83;65.93;;;;;20.50;100862.00;;;;2028686;29;20693;-66
2023/03/20 08:21:08;;;;;;;88.07;67.28;;;;;20.50;100871.00;;;;2038251;29;20279;-66
2023/03/20 08:22:09;;;;;;;87.27;68.50;;;;;20.50;100863.00;;;;2013891;28;20224;-66
2023/03/20 08:23:09;;;;;;;85.50;65.83;;;;;20.50;100862.00;;;;2031128;29;20222;-66
2023/03/20 08:24:09;;;;;;;84.17;65.10;;;;;20.50;100869.00;;;;2031389;29;20303;-66
2023/03/20 08:25:10;;;;;;;82.90;65.37;;;;;20.40;100855.00;;;;2032195;29;20689;-66
2023/03/20 08:26:11;;;;;;;83.67;65.90;;;;;20.50;100874.00;;;;2014108;29;20580;-66
2023/03/20 08:27:11;;;;;;;83.23;64.70;;;;;20.50;100874.00;;;;2022791;29;20238;-66
2023/03/20 08:28:12;;;;;;;84.20;63.87;;;;;20.60;100869.00;;;;2029460;29;21118;-66
2023/03/20 08:29:12;;;;;;;86.70;66.37;;;;;20.50;100870.00;;;;2030794;29;20256;-66
2023/03/20 08:30:15;;;;;;;83.40;64.73;;;;;20.60;100876.00;;;;2029908;29;20229;-66
2023/03/20 08:31:16;;;;;;;81.32;62.97;;;;;20.50;100868.00;;;;2030565;29;20294;-66
2023/03/20 08:32:16;;;;;;;75.88;59.35;;;;;20.60;100877.00;;;;2030464;29;20269;-66
2023/03/20 08:33:17;;;;;;;74.27;59.70;;;;;20.60;100876.00;;;;2025778;28;20720;-66
2023/03/20 08:34:17;;;;;;;75.33;61.70;;;;;20.60;100872.00;;;;2028299;28;20579;-66
2023/03/20 08:35:17;;;;;;;84.70;63.00;;;;;20.60;100864.00;;;;2034623;29;20256;-66
2023/03/20 08:36:20;;;;;;;76.50;56.90;;;;;20.60;100871.00;;;;2023625;28;20220;-66
2023/03/20 08:37:21;;;;;;;76.05;58.55;;;;;20.60;100871.00;;;;2033386;29;20212;-65
2023/03/20 08:38:21;;;;;;;71.87;58.40;;;;;20.60;100873.00;;;;2028459;29;20628;-66
2023/03/20 08:39:22;;;;;;;76.50;60.43;;;;;20.60;100872.00;;;;2038281;29;20578;-66
2023/03/20 08:40:22;;;;;;;74.67;59.40;;;;;20.60;100874.00;;;;2038622;29;20221;-66
2023/03/20 08:41:22;;;;;;;75.30;58.50;;;;;20.60;100871.00;;;;2029405;29;20561;-66
2023/03/20 08:42:23;;;;;;;68.70;56.37;;;;;20.60;100873.00;;;;2038432;29;20305;-66
2023/03/20 08:43:23;;;;;;;73.33;59.33;;;;;20.60;100872.00;;;;2030214;29;20228;-66
2023/03/20 08:44:23;;;;;;;68.83;56.30;;;;;20.60;100876.00;;;;2028060;29;20273;-66
2023/03/20 08:45:25;;;;;;;72.80;59.10;;;;;20.60;100864.00;;;;2030334;29;20226;-66
2023/03/20 08:46:25;;;;;;;71.03;56.33;;;;;20.60;100870.00;;;;2030756;29;20234;-66
2023/03/20 08:47:26;;;;;;;68.53;55.77;;;;;20.60;100873.00;;;;2020665;29;20232;-65
2023/03/20 08:48:26;;;;;;;67.67;54.90;;;;;20.60;100886.00;;;;2039030;29;20216;-66
2023/03/20 08:49:26;;;;;;;63.50;53.30;;;;;20.60;100872.00;;;;2028448;29;20227;-66
2023/03/20 08:50:27;;;;;;;65.20;52.00;;;;;20.60;100874.00;;;;2038573;29;20283;-66
2023/03/20 08:51:27;;;;;;;64.50;54.93;;;;;20.60;100873.00;;;;2036798;29;20221;-66
2023/03/20 08:52:27;;;;;;;70.07;56.03;;;;;20.60;100866.00;;;;2025365;29;20655;-66
2023/03/20 08:53:28;;;;;;;66.83;53.90;;;;;20.60;100876.00;;;;2027828;28;20216;-66
2023/03/20 08:54:28;;;;;;;67.97;53.77;;;;;20.60;100869.00;;;;2014745;29;20223;-66
2023/03/20 08:55:28;;;;;;;64.73;52.50;;;;;20.60;100865.00;;;;2038499;28;20375;-66
2023/03/20 08:56:29;;;;;;;63.97;51.23;;;;;20.60;100868.00;;;;2037806;28;21093;-66
2023/03/20 08:57:29;;;;;;;60.53;49.80;;;;;20.60;100862.00;;;;2034026;28;20256;-66
2023/03/20 08:58:32;;;;;;;63.33;53.23;;;;;20.70;100869.00;;;;2045752;28;20216;-66
2023/03/20 08:59:32;;;;;;;61.95;49.85;;;;;20.70;100869.00;;;;2041973;28;20217;-66
2023/03/20 09:00:33;;;;;;;64.03;49.73;;;;;20.70;100858.00;;;;2031652;28;20219;-66
2023/03/20 09:01:33;;;;;;;60.33;48.80;;;;;20.70;100864.00;;;;2016255;28;20224;-66
2023/03/20 09:02:35;;;;;;;59.13;49.33;;;;;20.70;100871.00;;;;2038530;28;20236;-66
2023/03/20 09:03:36;;;;;;;62.83;51.00;;;;;20.70;100866.00;;;;2039303;28;20248;-66
2023/03/20 09:04:36;;;;;;;60.93;50.63;;;;;20.70;100858.00;;;;2033162;28;20267;-67
2023/03/20 09:05:36;;;;;;;59.57;49.33;;;;;20.70;100863.00;;;;2044909;28;20216;-66
2023/03/20 09:06:37;;;;;;;55.23;45.80;;;;;20.70;100867.00;;;;2042435;28;20228;-66
2023/03/20 09:07:37;;;;;;;60.03;44.37;;;;;20.70;100863.00;;;;2036750;28;20240;-69
2023/03/20 09:08:37;;;;;;;56.23;45.93;;;;;20.70;100860.00;;;;2037043;29;20711;-67
2023/03/20 09:09:38;;;;;;;57.23;46.90;;;;;20.70;100859.00;;;;2038359;29;20296;-67
2023/03/20 09:10:39;;;;;;;55.17;44.87;;;;;20.70;100860.00;;;;2032103;28;20221;-68
2023/03/20 09:11:39;;;;;;;59.92;45.80;;;;;20.70;100862.00;;;;2038317;28;20240;-68
2023/03/20 09:12:40;;;;;;;52.87;45.30;;;;;20.70;100859.00;;;;2033431;28;20302;-67
2023/03/20 09:13:40;;;;;;;56.60;45.27;;;;;20.80;100864.00;;;;2045980;28;20259;-68
2023/03/20 09:14:40;;;;;;;54.33;45.50;;;;;20.80;100861.00;;;;2040726;28;20973;-67
2023/03/20 09:15:41;;;;;;;51.47;42.33;;;;;20.80;100860.00;;;;2038285;28;20746;-67
2023/03/20 09:16:41;;;;;;;56.00;44.27;;;;;20.80;100856.00;;;;2030374;28;20220;-67
2023/03/20 09:17:42;;;;;;;51.90;42.43;;;;;20.80;100864.00;;;;2045162;28;20220;-67
2023/03/20 09:18:42;;;;;;;52.07;42.00;;;;;20.70;100864.00;;;;2044970;28;20208;-67
2023/03/20 09:19:43;;;;;;;50.20;40.10;;;;;20.80;100869.00;;;;2038840;28;20255;-68
2023/03/20 09:20:44;;;;;;;47.92;40.50;;;;;20.80;100864.00;;;;2040177;28;20221;-67
2023/03/20 09:21:45;;;;;;;46.50;41.20;;;;;20.80;100858.00;;;;2037940;29;20221;-67
2023/03/20 09:22:45;;;;;;;48.53;39.30;;;;;20.80;100864.00;;;;2022666;29;20307;-67
2023/03/20 09:23:46;;;;;;;44.60;39.40;;;;;20.80;100853.00;;;;2037732;29;21032;-67
2023/03/20 09:24:46;;;;;;;46.23;39.63;;;;;20.80;100859.00;;;;2034432;28;20723;-67
2023/03/20 09:25:47;;;;;;;48.27;39.57;;;;;20.80;100849.00;;;;2037068;28;20523;-67
2023/03/20 09:26:47;;;;;;;47.23;38.07;;;;;20.80;100867.00;;;;2039941;28;20225;-68
2023/03/20 09:27:50;;;;;;;49.27;39.60;;;;;20.80;100859.00;;;;2035140;29;20217;-68
2023/03/20 09:28:51;;;;;;;43.65;37.60;;;;;20.80;100861.00;;;;2038186;28;20227;-68
2023/03/20 09:29:51;;;;;;;45.67;38.17;;;;;20.80;100865.00;;;;2031396;28;20583;-68
2023/03/20 09:30:55;;;;;;;45.43;37.30;;;;;20.80;100859.00;;;;2044422;28;20667;-67
2023/03/20 09:31:56;;;;;;;50.15;39.30;;;;;20.80;100868.00;;;;2042623;28;20221;-67
2023/03/20 09:32:56;;;;;;;45.73;38.30;;;;;20.80;100869.00;;;;2030906;28;20684;-67
2023/03/20 09:33:56;;;;;;;47.87;39.87;;;;;20.80;100866.00;;;;2038568;28;20686;-67
2023/03/20 09:34:57;;;;;;;49.03;41.23;;;;;20.80;100864.00;;;;2038845;28;20296;-67
2023/03/20 09:35:57;;;;;;;56.30;41.90;;;;;20.80;100869.00;;;;2039763;28;20220;-67
2023/03/20 09:36:57;;;;;;;52.03;43.53;;;;;20.80;100858.00;;;;2038481;28;20220;-67
2023/03/20 09:37:58;;;;;;;53.63;44.87;;;;;20.90;100861.00;;;;2038572;28;20273;-67
2023/03/20 09:38:58;;;;;;;57.17;47.33;;;;;20.80;100863.00;;;;2035261;28;20220;-68
2023/03/20 09:39:58;;;;;;;58.53;47.70;;;;;20.90;100855.00;;;;2045756;28;20215;-67
2023/03/20 09:40:59;;;;;;;57.73;48.10;;;;;20.90;100862.00;;;;2040323;28;20224;-68
2023/03/20 09:42:07;;;;;;;63.27;50.67;;;;;20.90;100875.00;;;;2025341;28;20216;-68
2023/03/20 09:43:17;;;;;;;60.30;49.65;;;;;20.90;100857.00;;;;2036571;29;20461;-67
2023/03/20 09:44:37;;;;;;;63.53;52.28;;;;;20.90;100868.00;;;;2031222;29;20226;-67
2023/03/20 09:45:59;;;;;;;65.60;54.70;;;;;20.90;100872.00;;;;2009446;29;20229;-67
2023/03/20 09:47:17;;;;;;;65.07;53.20;;;;;20.90;100876.00;;;;2029025;28;20244;-67
2023/03/20 09:48:38;;;;;;;69.53;55.55;;;;;20.90;100866.00;;;;2045678;28;20294;-67
2023/03/20 09:49:54;;;;;;;71.13;56.03;;;;;20.90;100878.00;;;;2040614;28;20588;-68
2023/03/20 09:51:30;;;;;;;71.57;56.85;;;;;20.90;100858.00;;;;2029169;28;20225;-67
2023/03/20 09:52:32;;;;;;;103.15;77.47;;;;;20.90;100867.00;;;;2037759;28;20252;-67
2023/03/20 09:53:35;;;;;;;86.55;66.45;;;;;20.80;100867.00;;;;2028979;29;20276;-67
2023/03/20 09:54:38;;;;;;;91.07;69.00;;;;;20.90;100858.00;;;;2022689;29;20222;-66
2023/03/20 09:55:39;;;;;;;80.78;66.32;;;;;21.00;100867.00;;;;2011857;29;20233;-67
2023/03/20 09:56:39;;;;;;;78.22;65.97;;;;;21.00;100864.00;;;;2012925;29;20218;-68
2023/03/20 09:57:41;;;;;;;82.13;66.67;;;;;21.00;100868.00;;;;2023408;29;20215;-67
2023/03/20 09:58:42;;;;;;;88.60;69.25;;;;;21.00;100869.00;;;;2022783;29;20228;-67
2023/03/20 09:59:42;;;;;;;90.73;69.13;;;;;21.00;100863.00;;;;2022452;29;20217;-67
2023/03/20 10:00:44;;;;;;;88.87;68.93;;;;;21.00;100874.00;;;;2030330;29;20589;-67
2023/03/20 10:01:52;;;;;;;87.90;69.25;;;;;21.00;100873.00;;;;2006030;29;20325;-67
2023/03/20 10:03:00;;;;;;;83.97;70.78;;;;;21.00;100876.00;;;;2008696;29;20835;-68
2023/03/20 10:04:03;;;;;;;84.07;68.00;;;;;21.00;100868.00;;;;2021605;29;20221;-68
2023/03/20 10:05:04;;;;;;;86.07;71.45;;;;;21.00;100874.00;;;;2029893;29;20693;-67
2023/03/20 10:06:06;;;;;;;87.03;70.78;;;;;21.00;100881.00;;;;2024746;29;20225;-68
2023/03/20 10:07:09;;;;;;;87.00;69.28;;;;;21.00;100878.00;;;;2029556;29;20218;-68
2023/03/20 10:08:12;;;;;;;83.38;68.80;;;;;21.00;100871.00;;;;2021298;29;20218;-68
2023/03/20 10:09:15;;;;;;;89.53;69.60;;;;;21.00;100874.00;;;;2029635;29;20273;-68
2023/03/20 10:10:19;;;;;;;85.05;71.53;;;;;21.00;100879.00;;;;2029639;29;20293;-68
2023/03/20 10:11:48;;;;;;;82.75;69.30;;;;;21.00;100870.00;;;;2029758;29;20262;-68
2023/03/20 10:13:00;;;;;;;90.28;70.00;;;;;21.00;100864.00;;;;2017715;29;20214;-68
2023/03/20 10:14:22;;;;;;;87.85;70.20;;;;;21.00;100870.00;;;;2024083;29;20229;-68
2023/03/20 10:15:42;;;;;;;87.18;70.10;;;;;21.00;100868.00;;;;2029672;29;20249;-68
2023/03/20 10:16:55;;;;;;;88.85;67.05;;;;;21.00;100867.00;;;;2030580;29;20312;-68
2023/03/20 10:18:04;;;;;;;83.30;69.18;;;;;21.00;100869.00;;;;2023022;29;20297;-68
2023/03/20 10:19:22;;;;;;;78.70;66.03;;;;;21.00;100861.00;;;;2023615;29;20215;-68
2023/03/20 10:20:33;;;;;;;87.05;71.03;;;;;21.00;100865.00;;;;2031241;29;20634;-68
2023/03/20 10:22:01;;;;;;;83.82;68.97;;;;;21.00;100871.00;;;;2022479;29;20213;-68
2023/03/20 10:23:29;;;;;;;81.45;65.10;;;;;21.00;100859.00;;;;2029371;29;20221;-67
2023/03/20 10:24:51;;;;;;;85.35;66.07;;;;;21.00;100875.00;;;;2030524;29;20229;-67
2023/03/20 10:25:54;;;;;;;84.20;68.70;;;;;20.90;100876.00;;;;2022719;29;20218;-67
2023/03/20 10:26:55;;;;;;;86.93;67.53;;;;;20.90;100868.00;;;;1999172;29;20222;-67
2023/03/20 10:27:59;;;;;;;86.77;69.23;;;;;20.90;100873.00;;;;2007617;29;20222;-67
2023/03/20 10:29:01;;;;;;;80.53;67.00;;;;;20.90;100862.00;;;;2022414;29;20506;-67
2023/03/20 10:30:10;;;;;;;82.70;67.97;;;;;20.90;100868.00;;;;2030279;29;20248;-67
2023/03/20 10:31:13;;;;;;;80.82;64.63;;;;;20.90;100861.00;;;;2013452;29;20320;-67
2023/03/20 10:32:46;;;;;;;84.65;67.32;;;;;20.90;100858.00;;;;2021946;29;20229;-67
2023/03/20 10:34:11;;;;;;;86.18;67.55;;;;;20.90;100857.00;;;;2020093;29;20218;-67
2023/03/20 10:35:39;;;;;;;81.82;62.83;;;;;20.90;100861.00;;;;2028533;29;20253;-67
2023/03/20 10:37:01;;;;;;;75.60;64.93;;;;;20.90;100851.00;;;;2030409;29;20250;-68
2023/03/20 10:38:46;;;;;;;80.70;66.45;;;;;20.90;100871.00;;;;2030238;29;20760;-67
2023/03/20 10:40:04;;;;;;;82.38;65.90;;;;;20.90;100859.00;;;;2037063;29;20279;-67
2023/03/20 10:41:08;;;;;;;82.00;65.05;;;;;20.90;100867.00;;;;2036780;29;20213;-68
2023/03/20 10:42:24;;;;;;;78.10;63.17;;;;;20.90;100863.00;;;;2029578;29;20229;-68
2023/03/20 10:43:29;;;;;;;79.20;63.65;;;;;20.90;100856.00;;;;2008287;29;20226;-68
2023/03/20 10:44:38;;;;;;;82.00;65.00;;;;;21.00;100850.00;;;;2006759;29;20227;-68
2023/03/20 10:45:43;;;;;;;80.50;62.28;;;;;20.90;100863.00;;;;2014707;29;20223;-68
2023/03/20 10:46:45;;;;;;;78.45;62.78;;;;;20.90;100843.00;;;;2005432;29;20244;-67
2023/03/20 10:47:47;;;;;;;81.60;63.85;;;;;20.90;100855.00;;;;2013649;29;20210;-67
2023/03/20 10:49:11;;;;;;;74.38;60.63;;;;;20.90;100857.00;;;;2013030;29;20206;-68
2023/03/20 10:50:34;;;;;;;72.13;58.22;;;;;20.90;100852.00;;;;2024523;29;20229;-67
2023/03/20 10:51:40;;;;;;;77.78;61.60;;;;;20.90;100848.00;;;;2029116;29;20300;-67
2023/03/20 10:52:41;;;;;;;72.68;59.90;;;;;20.90;100836.00;;;;2021801;29;20225;-67
2023/03/20 10:53:50;;;;;;;71.83;55.50;;;;;20.90;100844.00;;;;2025414;29;20672;-66
2023/03/20 10:55:03;;;;;;;73.05;59.70;;;;;20.90;100837.00;;;;2037485;29;20611;-67
2023/03/20 10:56:06;;;;;;;76.60;58.83;;;;;20.90;100844.00;;;;2037922;29;20217;-67
2023/03/20 10:57:12;;;;;;;77.38;59.47;;;;;20.90;100847.00;;;;2030370;29;20217;-67
2023/03/20 10:58:16;;;;;;;70.32;59.03;;;;;20.90;100846.00;;;;2029036;29;20272;-67
2023/03/20 10:59:37;;;;;;;69.75;56.55;;;;;20.90;100834.00;;;;2022379;29;20221;-68
2023/03/20 11:00:37;;;;;;;75.95;60.33;;;;;20.90;100847.00;;;;2038813;29;20220;-67
2023/03/20 11:01:37;;;;;;;73.53;57.53;;;;;20.90;100844.00;;;;2037447;29;20213;-67
2023/03/20 11:02:38;;;;;;;66.77;56.00;;;;;20.90;100850.00;;;;2037141;28;20217;-68
2023/03/20 11:03:40;;;;;;;68.60;57.07;;;;;20.80;100845.00;;;;2038102;28;20217;-68
2023/03/20 11:04:40;;;;;;;67.00;55.35;;;;;20.80;100839.00;;;;2034193;28;20266;-68
2023/03/20 11:05:40;;;;;;;67.20;55.10;;;;;20.90;100845.00;;;;2043632;28;20223;-67
2023/03/20 11:07:05;;;;;;;62.53;54.30;;;;;20.80;100827.00;;;;2029565;29;20222;-68
2023/03/20 11:08:15;;;;;;;65.78;52.97;;;;;20.80;100836.00;;;;2031408;29;20213;-67
2023/03/20 11:09:19;;;;;;;71.43;58.90;;;;;20.80;100838.00;;;;2038656;29;20682;-67
2023/03/20 11:10:19;;;;;;;67.05;55.53;;;;;20.80;100845.00;;;;2036133;28;20716;-67
2023/03/20 11:11:24;;;;;;;62.10;52.40;;;;;20.80;100854.00;;;;2023075;29;20221;-67
2023/03/20 11:12:24;;;;;;;61.28;51.88;;;;;20.80;100837.00;;;;2018035;29;20646;-68
2023/03/20 11:13:28;;;;;;;65.40;52.77;;;;;20.80;100829.00;;;;2017130;29;20233;-67
2023/03/20 11:14:36;;;;;;;74.03;58.15;;;;;20.80;100837.00;;;;2022348;29;20242;-67
2023/03/20 11:15:37;;;;;;;66.05;54.00;;;;;20.80;100843.00;;;;2032474;29;20217;-68
2023/03/20 11:16:39;;;;;;;57.70;49.57;;;;;20.80;100831.00;;;;2037971;28;20205;-67
2023/03/20 11:17:40;;;;;;;59.05;51.35;;;;;20.80;100827.00;;;;2028020;29;20248;-68
2023/03/20 11:18:41;;;;;;;74.63;57.67;;;;;20.80;100826.00;;;;2030795;29;20586;-67
2023/03/20 11:19:41;;;;;;;61.00;50.90;;;;;20.80;100827.00;;;;2037247;29;20461;-68
2023/03/20 11:20:53;;;;;;;62.00;51.10;;;;;20.80;100833.00;;;;2035898;29;20312;-68
2023/03/20 11:21:56;;;;;;;65.47;52.35;;;;;20.80;100828.00;;;;2038736;28;20303;-68
2023/03/20 11:22:58;;;;;;;75.18;61.50;;;;;20.80;100830.00;;;;2029429;28;20649;-68
2023/03/20 11:23:58;;;;;;;68.88;56.05;;;;;20.80;100829.00;;;;2037295;29;20225;-68
2023/03/20 11:25:03;;;;;;;85.10;64.53;;;;;20.80;100831.00;;;;2021086;29;20871;-67
2023/03/20 11:26:06;;;;;;;75.55;62.50;;;;;20.80;100824.00;;;;2028458;29;20224;-67
2023/03/20 11:27:14;;;;;;;85.78;67.68;;;;;20.80;100815.00;;;;2035205;29;20232;-67
2023/03/20 11:28:34;;;;;;;80.32;60.10;;;;;20.80;100822.00;;;;2024309;29;20228;-67
2023/03/20 11:29:35;;;;;;;62.90;47.63;;;;;20.60;100821.00;;;;2037843;28;20224;-67
2023/03/20 11:30:39;;;;;;;64.07;49.60;;;;;20.50;100820.00;;;;2028170;29;20221;-67
2023/03/20 11:31:40;;;;;;;59.55;44.70;;;;;20.50;100817.00;;;;2030365;29;20301;-67
2023/03/20 11:32:44;;;;;;;55.70;44.27;;;;;20.60;100822.00;;;;2037458;29;20660;-67
2023/03/20 11:34:10;;;;;;;73.57;50.83;;;;;20.70;100821.00;;;;2026177;29;20245;-67
2023/03/20 11:35:16;;;;;;;69.00;53.70;;;;;20.70;100824.00;;;;2037219;28;20712;-67
2023/03/20 11:36:22;;;;;;;63.10;48.67;;;;;20.80;100820.00;;;;2035222;28;20221;-67
2023/03/20 11:37:28;;;;;;;69.10;52.80;;;;;20.80;100819.00;;;;2030202;28;20331;-68
2023/03/20 11:38:29;;;;;;;67.50;51.13;;;;;20.80;100820.00;;;;2042732;28;20231;-68
2023/03/20 11:39:31;;;;;;;77.37;55.43;;;;;20.80;100823.00;;;;2042013;28;20275;-68
2023/03/20 11:40:32;;;;;;;75.15;54.28;;;;;20.80;100821.00;;;;2039281;28;20244;-67
2023/03/20 11:41:33;;;;;;;87.57;62.77;;;;;20.80;100812.00;;;;2037761;28;20221;-67
2023/03/20 11:42:35;;;;;;;82.40;59.47;;;;;20.90;100819.00;;;;2030925;29;20222;-67
2023/03/20 11:43:36;;;;;;;88.10;59.70;;;;;20.80;100815.00;;;;2008761;29;20534;-69
2023/03/20 11:44:37;;;;;;;97.35;61.22;;;;;20.80;100817.00;;;;2031302;29;20363;-69
2023/03/20 11:45:38;;;;;;;90.40;63.33;;;;;20.80;100823.00;;;;2030919;29;20247;-68
2023/03/20 11:46:39;;;;;;;85.50;59.67;;;;;20.80;100812.00;;;;2029396;29;20337;-67
2023/03/20 11:47:40;;;;;;;91.23;63.13;;;;;20.80;100815.00;;;;2012877;29;20274;-68
2023/03/20 11:48:43;;;;;;;85.43;59.60;;;;;20.90;100822.00;;;;2029056;29;20240;-68
2023/03/20 11:49:46;;;;;;;89.32;62.38;;;;;20.70;100818.00;;;;2037743;28;20229;-69
2023/03/20 11:50:50;;;;;;;89.35;61.28;;;;;20.90;100823.00;;;;2039307;29;20345;-68